Little Water, New Mexico
Current Conditions -  °F | °C
As of 8:53 AM on Wednesday 28 Jan 2015 (Local Time) from KFMN Reporting Station
Clear Clear  
Wind Chill: 31°   Ceiling: Unl
Heat Index: 36°   Visibility: 10mi
Dew Point: 29°   Wind: 6mph
Humidity: 76%   Direction: 90°E
Pressure: 30.3"   Gusts: NA
Location:  36.3945°N, 108.769°W
Report Text: KFMN 281553Z 09005KT 10SM CLR 02/M02 A3030 RMK AO2 SLP267 T00221017
Loading
Personal Weather Stations






























Interactive Weather Map New forecast layout! Learn more

10-Day Weather Forecast

Advertisements
Track Severe Weather on mobile